Auburn, CA

1:13 PM PST on December 11, 2019 (GMT -0800)
Auburn Municipal

Weather History for KAUN - October, 2019

Change the Weather History Date:

Friday, October 25, 2019

  Actual Average Record
Temperature  
Mean Temperature 70 °F -  
Max Temperature 82 °F 73 °F 92 °F (1959)
Min Temperature 57 °F 49 °F 35 °F (1956)
Cooling Degree Days 4    
Growing Degree Days 20 (Base 50)    
Moisture  
Dew Point 28 °F    
Average Humidity 22    
Maximum Humidity 41    
Minimum Humidity 14    
Precipitation  
Precipitation 0.00 in - - ()
Sea Level Pressure  
Sea Level Pressure 30.11 in    
Wind  
Wind Speed 2 mph ()    
Max Wind Speed 9 mph    
Max Gust Speed -    
Visibility 9.9 miles    
Events      
Averages and records for this station are not official NWS values.
T = Trace of Precipitation, MM = Missing Value Source: Averaged Metar Reports

Daily Weather History Graph

Daily Weather History Graph

Search for Another Location

Airport or City:

Astronomy

Oct. 25, 2019 Rise Set
Actual Time 7:23 AM PDT 6:12 PM PDT
Civil Twilight 6:56 AM PDT 6:39 PM PDT
Nautical Twilight 6:25 AM PDT 7:10 PM PDT
Astronomical Twilight 5:54 AM PDT 7:41 PM PDT
Moon 4:15 AM PDT (10/25) 5:15 PM PDT (10/25)
Length of Visible Light 11h 42m
Length of Day
10h 48m
Waning Crescent, 8% of the Moon is Illuminated
Oct 25
Waning Crescent
Oct 27
New
Nov 4
First Quarter
Nov 12
Full
Nov 19
Last Quarter

Hourly Weather History & Observations

Time (PDT) Temp. Dew Point Humidity Pressure Visibility Wind Dir Wind Speed Gust Speed Precip Events Conditions
12:15 AM 68.0 °F 23.0 °F 18% 30.14 in 10.0 mi Calm Calm - N/A   Clear
12:35 AM 64.4 °F 24.8 °F 22% 30.14 in 6.0 mi East 3.5 mph - N/A   Haze
12:55 AM 66.2 °F 23.0 °F 19% 30.14 in 10.0 mi East 6.9 mph - N/A   Clear
1:15 AM 68.0 °F 23.0 °F 18% 30.14 in 10.0 mi East 9.2 mph - N/A   Clear
1:35 AM 66.2 °F 23.0 °F 19% 30.14 in 10.0 mi East 9.2 mph - N/A   Clear
1:55 AM 64.4 °F 23.0 °F 21% 30.14 in 10.0 mi East 6.9 mph - N/A   Clear
2:15 AM 66.2 °F 21.2 °F 18% 30.14 in 10.0 mi Calm Calm - N/A   Clear
2:35 AM 64.4 °F 21.2 °F 19% 30.15 in 10.0 mi Calm Calm - N/A   Clear
2:55 AM 64.4 °F 21.2 °F 19% 30.15 in 10.0 mi Calm Calm - N/A   Clear
3:15 AM 66.2 °F 21.2 °F 18% 30.14 in 10.0 mi Calm Calm - N/A   Clear
3:35 AM 64.4 °F 21.2 °F 19% 30.14 in 10.0 mi East 3.5 mph - N/A   Clear
3:55 AM 64.4 °F 21.2 °F 19% 30.14 in 10.0 mi Calm Calm - N/A   Clear
4:15 AM 62.6 °F 21.2 °F 20% 30.14 in 10.0 mi Calm Calm - N/A   Clear
4:35 AM 62.6 °F 21.2 °F 20% 30.14 in 10.0 mi Calm Calm - N/A   Clear
4:55 AM 62.6 °F 21.2 °F 20% 30.14 in 10.0 mi East 4.6 mph - N/A   Clear
5:15 AM 64.4 °F 21.2 °F 19% 30.14 in 10.0 mi East 4.6 mph - N/A   Clear
5:35 AM 64.4 °F 21.2 °F 19% 30.14 in 10.0 mi East 4.6 mph - N/A   Clear
5:55 AM 64.4 °F 21.2 °F 19% 30.14 in 10.0 mi Calm Calm - N/A   Clear
6:15 AM 62.6 °F 21.2 °F 20% 30.14 in 10.0 mi Calm Calm - N/A   Clear
6:35 AM 62.6 °F 21.2 °F 20% 30.15 in 10.0 mi Calm Calm - N/A   Clear
6:55 AM 60.8 °F 21.2 °F 22% 30.15 in 10.0 mi Calm Calm - N/A   Clear
7:15 AM 59.0 °F 23.0 °F 25% 30.15 in 10.0 mi Calm Calm - N/A   Clear
7:35 AM 62.6 °F 23.0 °F 22% 30.15 in 10.0 mi Calm Calm - N/A   Clear
7:55 AM 64.4 °F 23.0 °F 21% 30.16 in 10.0 mi East 4.6 mph - N/A   Clear
8:15 AM 66.2 °F 23.0 °F 19% 30.16 in 10.0 mi East 5.8 mph - N/A   Clear
8:35 AM 68.0 °F 23.0 °F 18% 30.16 in 10.0 mi East 6.9 mph - N/A   Clear
8:55 AM 69.8 °F 24.8 °F 18% 30.17 in 10.0 mi Calm Calm - N/A   Clear
9:15 AM 69.8 °F 26.6 °F 20% 30.17 in 10.0 mi Calm Calm - N/A   Clear
9:35 AM 73.4 °F 28.4 °F 19% 30.17 in 10.0 mi Calm Calm - N/A   Clear
9:55 AM 75.2 °F 28.4 °F 18% 30.17 in 10.0 mi Calm Calm - N/A   Clear
10:15 AM 77.0 °F 28.4 °F 17% 30.17 in 10.0 mi Calm Calm - N/A   Clear
10:35 AM 78.8 °F 32.0 °F 18% 30.16 in 10.0 mi Calm Calm - N/A   Clear
10:55 AM 78.8 °F 28.4 °F 16% 30.16 in 10.0 mi Calm Calm - N/A   Clear
11:15 AM 78.8 °F 28.4 °F 16% 30.16 in 10.0 mi Calm Calm - N/A   Clear
11:35 AM 80.6 °F 28.4 °F 15% 30.15 in 10.0 mi Calm Calm - N/A   Clear
11:55 AM 80.6 °F 28.4 °F 15% 30.15 in 10.0 mi Calm Calm - N/A   Clear
12:15 PM 82.4 °F 28.4 °F 14% 30.14 in 10.0 mi Calm Calm - N/A   Clear
12:35 PM 82.4 °F 32.0 °F 16% 30.14 in 10.0 mi Calm Calm - N/A   Clear
12:55 PM 82.4 °F 32.0 °F 16% 30.13 in 10.0 mi West 4.6 mph - N/A   Clear
1:15 PM 80.6 °F 32.0 °F 17% 30.12 in 10.0 mi Calm Calm - N/A   Clear
1:35 PM 82.4 °F 32.0 °F 16% 30.11 in 10.0 mi Calm Calm - N/A   Clear
1:55 PM 82.4 °F 32.0 °F 16% 30.11 in 10.0 mi Calm Calm - N/A   Clear
2:15 PM 82.4 °F 30.2 °F 15% 30.10 in 10.0 mi Calm Calm - N/A   Clear
2:35 PM 82.4 °F 32.0 °F 16% 30.10 in 10.0 mi WSW 4.6 mph - N/A   Clear
2:50 PM 82.4 °F 32.0 °F 16% 30.09 in 10.0 mi Calm Calm - N/A   Clear
3:15 PM 82.4 °F 32.0 °F 16% 30.09 in 10.0 mi Calm Calm - N/A   Clear
3:35 PM 82.4 °F 32.0 °F 16% 30.09 in 10.0 mi Calm Calm - N/A   Clear
3:55 PM 82.4 °F 32.0 °F 16% 30.08 in 10.0 mi Calm Calm - N/A   Clear
4:15 PM 80.6 °F 32.0 °F 17% 30.08 in 10.0 mi Calm Calm - N/A   Clear
4:35 PM 80.6 °F 30.2 °F 16% 30.07 in 10.0 mi Calm Calm - N/A   Clear
4:55 PM 80.6 °F 30.2 °F 16% 30.07 in 10.0 mi Calm Calm - N/A   Clear
5:15 PM 78.8 °F 30.2 °F 17% 30.06 in 10.0 mi Calm Calm - N/A   Clear
5:35 PM 78.8 °F 30.2 °F 17% 30.06 in 10.0 mi Calm Calm - N/A   Clear
5:55 PM 71.6 °F 33.8 °F 25% 30.05 in 10.0 mi Calm Calm - N/A   Clear
6:15 PM 64.4 °F 33.8 °F 32% 30.05 in 10.0 mi Calm Calm - N/A   Clear
6:35 PM 60.8 °F 32.0 °F 34% 30.05 in 10.0 mi Calm Calm - N/A   Clear
6:55 PM 60.8 °F 32.0 °F 34% 30.05 in 10.0 mi Calm Calm - N/A   Clear
7:15 PM 62.6 °F 32.0 °F 32% 30.04 in 10.0 mi Calm Calm - N/A   Clear
7:35 PM 57.2 °F 33.8 °F 41% 30.05 in 10.0 mi Calm Calm - N/A   Clear
7:55 PM 59.0 °F 32.0 °F 36% 30.04 in 10.0 mi Calm Calm - N/A   Clear
8:15 PM 60.8 °F 32.0 °F 34% 30.04 in 10.0 mi Calm Calm - N/A   Clear
8:35 PM 59.0 °F 32.0 °F 36% 30.04 in 10.0 mi Calm Calm - N/A   Clear
8:55 PM 68.0 °F 33.8 °F 28% 30.04 in 10.0 mi Calm Calm - N/A   Clear
9:15 PM 62.6 °F 33.8 °F 34% 30.04 in 10.0 mi Calm Calm - N/A   Clear
9:35 PM 64.4 °F 35.6 °F 34% 30.04 in 10.0 mi Calm Calm - N/A   Clear
9:55 PM 68.0 °F 33.8 °F 28% 30.04 in 10.0 mi Calm Calm - N/A   Clear
10:15 PM 66.2 °F 33.8 °F 30% 30.04 in 6.0 mi Calm Calm - N/A   Haze
10:35 PM 64.4 °F 35.6 °F 34% 30.04 in 9.0 mi Calm Calm - N/A   Clear
10:55 PM 62.6 °F 35.6 °F 37% 30.04 in 10.0 mi Calm Calm - N/A   Clear
11:15 PM 64.4 °F 35.6 °F 34% 30.04 in 10.0 mi Calm Calm - N/A   Clear
11:35 PM 62.6 °F 35.6 °F 37% 30.03 in 10.0 mi Calm Calm - N/A   Clear
11:55 PM 62.6 °F 35.6 °F 37% 30.03 in 10.0 mi Calm Calm - N/A   Clear